Swanquarter, North Carolina
Current Conditions -  °F | °C
As of 4:56 AM on Tuesday 21 Oct 2014 (Local Time) from KNBT Reporting Station
Haze Haze  
Wind Chill: 66°   Ceiling: Unl
Heat Index: 66°   Visibility: 6mi
Dew Point: 62°   Wind: 5mph
Humidity: 87%   Direction: 260°W
Pressure: 29.93"   Gusts: NA
Location:  35.41°N, 76.33°W
Report Text: KNBT 210856Z AUTO 26004KT 6SM BR SCT048 19/17 A2993 RMK AO2 SLP139 6//// T01890167 55009 PNO
Loading
Personal Weather Stations






























Interactive Weather Map
Tropical Storm Tracking
New forecast layout! Learn more

10-Day Weather Forecast

Advertisements
Track Severe Weather on mobile